Главная страница
METAR-TAF:

METAR-TAF

Аэропорты :

Псков, Россия

широта: 57-47-06N, долгота: 028-23-54E, высота над уровнем моря: 47 м

Текущие метеонаблюдения

Эта сводка был подготовлена 27 минут назад, в 15:00 UTC
Ветер 2 Узел переменных направлений
Температура 22°C
Влажность 43%
Давление 1010 hPa
Видимость 10 км и более
Нет облачности ниже 1500 м, и нет кучево-дождевой облачности

METAR: ULOO 221500Z VRB01MPS CAVOK 22/09 Q1010 R01/090066 NOSIG RMK QFE753

Время: 18:27 (15:27 UTC)

Прогноз

Эта сводка был подготовлена 1 час и 34 минут назад, в 13:53 UTC
Прогноз действительный с 22-го 15 UTC до 22-го 24 UTC
Ветер 6 Узел от северо-западный
Видимость 10 км и более
Отдельные облака на высоте 2500 фута

TAF: ULOO 221353Z 2215/2224 32003MPS 9999 SCT025

Метеонаблюдения и прогнозы для более 4000 аэропортов (сводки METAR и TAF).

Имеющиеся станции представлены на карте желтыми и красными точками.

Чтобы увидеть название станции, наведите на нее мышь.

Затем щелкните, чтобы увидеть метеонаблюдения и метеопрогнозы.

Управление картой: чтобы увеличить масштаб, щелкните зеленые кнопки с черным крестиком; чтобы уменьшить масштаб, щелкните зеленую кнопку с тире; для просмотра соседних карт щелкайте зеленые стрелки.


METAR-TAF: